Time;durP1;ratioP1;P1;durP2;ratioP2;P2;SDS_P1;SDS_P2;PMS_P1;PMS_P2;Temp;Humidity;BMP_temperature;BMP_pressure;BME280_temperature;BME280_humidity;BME280_pressure;Samples;Min_cycle;Max_cycle;Signal;HPM_P1;HPM_P2
2023/09/29 00:00:13;;;;;;;18.88;13.60;;;;;;;18.40;100.00;100989.63;5040185;28;20054;-81
2023/09/29 00:02:40;;;;;;;20.02;13.55;;;;;;;18.39;100.00;100985.34;5041378;28;20080;-82
2023/09/29 00:05:07;;;;;;;18.13;13.48;;;;;;;18.39;100.00;100984.53;5040318;28;20054;-82
2023/09/29 00:07:34;;;;;;;17.08;13.02;;;;;;;18.32;100.00;100986.31;5039846;28;20077;-81
2023/09/29 00:10:04;;;;;;;18.27;14.52;;;;;;;18.25;100.00;100978.34;5039731;28;20083;-81
2023/09/29 00:12:31;;;;;;;19.23;13.15;;;;;;;18.24;100.00;100980.19;5042592;28;20053;-81
2023/09/29 00:14:58;;;;;;;17.83;13.50;;;;;;;18.22;100.00;100984.84;5041343;28;20065;-80
2023/09/29 00:17:24;;;;;;;17.67;13.25;;;;;;;18.25;100.00;100994.25;5041476;28;20046;-81
2023/09/29 00:22:31;;;;;;;18.75;12.48;;;;;;;18.30;100.00;100985.72;5038520;28;20154;-80
2023/09/29 00:24:58;;;;;;;17.20;12.45;;;;;;;18.31;100.00;100985.50;5040244;28;20103;-81
2023/09/29 00:27:26;;;;;;;17.77;12.40;;;;;;;18.34;100.00;100986.94;5038542;28;20080;-82
2023/09/29 00:29:53;;;;;;;15.20;12.27;;;;;;;18.32;100.00;100978.38;5038155;28;20197;-79
2023/09/29 00:32:19;;;;;;;17.85;12.38;;;;;;;18.29;100.00;100990.19;5041276;28;20081;-81
2023/09/29 00:34:46;;;;;;;17.58;11.98;;;;;;;18.26;100.00;100987.94;5043135;28;20092;-79
2023/09/29 00:37:13;;;;;;;17.83;11.85;;;;;;;18.24;100.00;100977.53;5039228;28;20175;-81
2023/09/29 00:39:39;;;;;;;15.30;11.73;;;;;;;18.28;100.00;100988.56;5039590;28;20045;-81
2023/09/29 00:42:06;;;;;;;14.98;12.18;;;;;;;18.33;100.00;100991.44;5039456;28;20081;-81
2023/09/29 00:44:34;;;;;;;18.23;12.10;;;;;;;18.31;100.00;100977.56;5040684;28;20045;-80
2023/09/29 00:47:02;;;;;;;14.48;12.07;;;;;;;18.26;100.00;100984.47;5040087;28;20419;-80
2023/09/29 00:49:31;;;;;;;19.02;13.23;;;;;;;18.32;100.00;100973.09;5040615;28;20077;-82
2023/09/29 00:51:59;;;;;;;18.30;12.57;;;;;;;18.27;100.00;100970.22;5031623;28;20064;-81
2023/09/29 00:54:28;;;;;;;17.52;13.32;;;;;;;18.23;100.00;100960.00;5039271;28;20480;-81
2023/09/29 00:56:56;;;;;;;17.35;13.15;;;;;;;18.24;100.00;100971.41;5039429;28;20049;-82
2023/09/29 00:59:24;;;;;;;17.10;13.02;;;;;;;18.18;100.00;100962.44;5038839;28;20080;-83
2023/09/29 01:01:52;;;;;;;18.08;12.73;;;;;;;18.22;100.00;100968.16;5040692;28;20045;-82
2023/09/29 01:04:23;;;;;;;19.10;12.82;;;;;;;18.17;100.00;100965.28;5048668;28;20084;-82
2023/09/29 01:06:50;;;;;;;20.50;12.70;;;;;;;18.15;100.00;100956.72;5040126;28;20045;-81
2023/09/29 01:09:17;;;;;;;17.15;13.00;;;;;;;18.06;100.00;100944.66;5039630;28;20053;-83
2023/09/29 01:11:44;;;;;;;20.50;12.52;;;;;;;18.05;100.00;100951.78;5040389;28;20053;-81
2023/09/29 01:14:13;;;;;;;20.25;13.18;;;;;;;18.01;100.00;100950.53;5039647;28;20132;-82
2023/09/29 01:16:41;;;;;;;17.20;12.70;;;;;;;18.08;100.00;100945.25;5038646;28;20208;-81
2023/09/29 01:19:12;;;;;;;14.35;11.55;;;;;;;18.18;100.00;100951.84;5039435;28;20124;-81
2023/09/29 01:21:39;;;;;;;16.55;12.30;;;;;;;18.23;100.00;100943.28;5039650;28;20060;-82
2023/09/29 01:24:08;;;;;;;19.58;12.32;;;;;;;18.06;100.00;100942.00;5039000;28;20065;-82
2023/09/29 01:26:38;;;;;;;18.77;13.38;;;;;;;17.99;100.00;100941.16;5039214;28;20474;-81
2023/09/29 01:29:05;;;;;;;19.90;12.98;;;;;;;18.12;100.00;100935.91;5038314;28;20385;-82
2023/09/29 01:31:34;;;;;;;16.40;12.88;;;;;;;18.17;100.00;100944.91;5039154;28;20137;-81
2023/09/29 01:34:04;;;;;;;17.35;13.15;;;;;;;18.13;100.00;100937.53;5038673;28;20049;-82
2023/09/29 01:36:31;;;;;;;20.92;13.10;;;;;;;18.14;100.00;100936.53;5038630;28;20134;-81
2023/09/29 01:38:58;;;;;;;17.67;13.15;;;;;;;18.01;100.00;100931.19;5038503;28;20049;-82
2023/09/29 01:41:26;;;;;;;17.55;12.65;;;;;;;17.97;100.00;100937.88;5038822;28;20470;-82
2023/09/29 01:43:53;;;;;;;21.38;13.27;;;;;;;17.91;100.00;100936.84;5038506;28;20161;-82
2023/09/29 01:46:19;;;;;;;17.25;13.02;;;;;;;17.98;100.00;100948.28;5038297;28;20050;-82
2023/09/29 01:48:46;;;;;;;17.60;12.52;;;;;;;18.10;100.00;100946.69;5037549;28;20080;-81
2023/09/29 01:51:13;;;;;;;18.42;12.40;;;;;;;18.08;100.00;100948.72;5037917;28;20136;-80
2023/09/29 01:53:39;;;;;;;14.57;11.63;;;;;;;18.09;100.00;100958.31;5036950;28;20087;-81
2023/09/29 01:56:06;;;;;;;14.27;11.20;;;;;;;18.06;100.00;100947.28;5032508;28;20050;-81
2023/09/29 01:58:35;;;;;;;15.45;11.55;;;;;;;18.07;100.00;100955.03;5039255;28;20045;-79
2023/09/29 02:01:02;;;;;;;15.90;11.65;;;;;;;18.05;100.00;100950.94;5039871;28;20132;-80
2023/09/29 02:03:31;;;;;;;16.55;12.90;;;;;;;17.90;100.00;100943.16;5040125;28;20053;-81
2023/09/29 02:06:05;;;;;;;15.10;11.15;;;;;;;17.91;100.00;100934.22;5040611;28;20136;-81
2023/09/29 02:08:34;;;;;;;16.52;12.38;;;;;;;17.77;100.00;100929.84;5040766;28;20518;-82
2023/09/29 02:11:05;;;;;;;16.52;12.23;;;;;;;17.65;100.00;100918.16;5041509;28;20127;-80
2023/09/29 02:13:34;;;;;;;21.70;12.10;;;;;;;17.63;100.00;100920.16;5041086;28;20084;-81
2023/09/29 02:16:00;;;;;;;15.25;12.25;;;;;;;17.71;100.00;100936.75;5035377;28;20105;-82
2023/09/29 02:18:28;;;;;;;21.30;12.13;;;;;;;17.79;100.00;100938.41;5039829;28;20055;-81
2023/09/29 02:20:55;;;;;;;16.85;12.25;;;;;;;17.76;100.00;100933.50;5040724;28;20065;-83
2023/09/29 02:23:22;;;;;;;16.10;12.45;;;;;;;17.72;100.00;100922.50;5028004;28;20056;-82
2023/09/29 02:26:01;;;;;;;17.13;12.45;;;;;;;17.71;100.00;100922.69;5071577;23;20044;-83
2023/09/29 02:31:50;;;;;;;15.05;12.88;;;;;;;17.66;100.00;100902.09;5059951;28;20057;-84
2023/09/29 02:38:25;;;;;;;17.45;12.48;;;;;;;17.66;100.00;100904.75;5073933;22;20053;-82
2023/09/29 03:02:33;;;;;;;16.42;12.05;;;;;;;17.57;100.00;100901.41;5030316;28;20129;-82
2023/09/29 03:07:57;;;;;;;14.32;11.85;;;;;;;17.71;100.00;100912.09;5020682;28;20038;-84
2023/09/29 03:10:29;;;;;;;17.23;10.95;;;;;;;17.70;100.00;100905.19;5024542;28;20052;-85
2023/09/29 03:50:21;;;;;;;14.40;11.90;;;;;;;17.71;100.00;100880.34;5175197;22;20072;-84
2023/09/29 03:52:47;;;;;;;16.95;11.75;;;;;;;17.71;100.00;100880.34;5085901;28;20097;-82
2023/09/29 03:55:23;;;;;;;16.15;11.25;;;;;;;17.71;100.00;100886.47;5079934;28;20048;-84
2023/09/29 03:57:56;;;;;;;14.73;11.73;;;;;;;17.57;100.00;100861.72;5066205;28;20049;-83
2023/09/29 04:00:22;;;;;;;16.80;11.80;;;;;;;17.72;100.00;100887.28;5060601;28;20049;-82
2023/09/29 04:02:50;;;;;;;13.10;11.02;;;;;;;17.63;100.00;100872.53;5086150;22;20108;-80
2023/09/29 04:05:18;;;;;;;14.15;11.25;;;;;;;17.74;100.00;100885.25;5075735;28;20048;-80
2023/09/29 04:07:47;;;;;;;13.60;10.68;;;;;;;17.60;100.00;100873.75;5075181;28;20139;-79
2023/09/29 04:10:17;;;;;;;13.07;11.10;;;;;;;17.64;100.00;100882.94;5075714;28;20045;-80
2023/09/29 04:12:54;;;;;;;18.58;10.98;;;;;;;17.54;100.00;100867.41;5060934;28;20083;-80
2023/09/29 04:15:21;;;;;;;15.60;11.25;;;;;;;17.55;100.00;100866.41;5056157;28;20072;-80
2023/09/29 04:17:47;;;;;;;16.40;12.15;;;;;;;17.52;100.00;100856.19;5055113;28;20041;-80
2023/09/29 04:20:15;;;;;;;15.00;11.32;;;;;;;17.49;100.00;100840.72;5069223;28;20049;-80
2023/09/29 04:22:47;;;;;;;12.52;11.02;;;;;;;17.73;100.00;100867.75;5061354;28;20152;-79
2023/09/29 04:25:16;;;;;;;15.20;10.55;;;;;;;17.77;100.00;100859.22;5068466;28;20507;-79
2023/09/29 04:27:44;;;;;;;14.95;10.75;;;;;;;17.64;100.00;100837.94;5066315;28;20048;-80
2023/09/29 04:30:13;;;;;;;13.40;10.07;;;;;;;17.87;100.00;100853.56;5058503;28;20135;-79
2023/09/29 04:32:42;;;;;;;14.18;9.90;;;;;;;17.73;100.00;100834.16;5065945;28;20053;-79
2023/09/29 04:35:12;;;;;;;14.55;10.05;;;;;;;17.71;100.00;100833.53;5057804;28;20128;-80
2023/09/29 04:37:47;;;;;;;15.15;10.10;;;;;;;17.65;100.00;100809.66;5066827;28;20049;-80
2023/09/29 04:40:23;;;;;;;13.35;10.48;;;;;;;17.66;100.00;100824.53;5051406;28;20076;-80
2023/09/29 04:42:51;;;;;;;16.02;10.38;;;;;;;17.74;100.00;100830.50;5063126;28;20106;-78
2023/09/29 04:45:18;;;;;;;12.93;10.68;;;;;;;17.90;100.00;100837.28;5055651;28;20575;-79
2023/09/29 04:47:48;;;;;;;12.30;10.48;;;;;;;17.86;100.00;100836.84;5069261;28;20504;-80
2023/09/29 04:50:20;;;;;;;14.95;9.82;;;;;;;17.86;100.00;100839.50;5058197;28;20419;-79
2023/09/29 04:52:53;;;;;;;12.32;10.27;;;;;;;17.79;100.00;100836.00;5052809;28;20060;-79
2023/09/29 04:55:24;;;;;;;13.23;10.48;;;;;;;18.01;100.00;100855.22;5060068;28;20067;-80
2023/09/29 04:57:57;;;;;;;13.73;9.85;;;;;;;17.99;100.00;100851.13;5046824;28;20133;-79
2023/09/29 05:00:26;;;;;;;15.90;10.88;;;;;;;17.89;100.00;100836.47;5045156;28;20055;-79
2023/09/29 05:02:56;;;;;;;16.58;10.98;;;;;;;17.78;100.00;100833.56;5068099;28;20083;-79
2023/09/29 05:05:47;;;;;;;16.00;11.00;;;;;;;17.84;100.00;100854.75;5067081;28;20056;-78
2023/09/29 05:08:22;;;;;;;16.23;10.63;;;;;;;17.74;100.00;100833.13;5068754;28;20056;-78
2023/09/29 05:10:53;;;;;;;15.07;10.60;;;;;;;17.79;100.00;100843.13;5069001;28;20115;-80
2023/09/29 05:13:20;;;;;;;12.65;10.48;;;;;;;17.67;100.00;100823.53;5072603;28;20052;-80
2023/09/29 05:15:50;;;;;;;13.60;11.02;;;;;;;17.64;100.00;100822.06;5068616;28;20048;-79
2023/09/29 05:18:17;;;;;;;17.20;11.45;;;;;;;17.70;100.00;100844.31;5063564;28;20569;-80
2023/09/29 05:20:44;;;;;;;15.75;10.95;;;;;;;17.73;100.00;100849.22;5054252;28;20060;-79
2023/09/29 05:23:12;;;;;;;14.30;10.07;;;;;;;17.81;100.00;100849.03;5045696;28;20092;-79
2023/09/29 05:25:46;;;;;;;13.48;10.93;;;;;;;17.67;100.00;100818.25;5065961;28;20540;-79
2023/09/29 05:28:17;;;;;;;14.57;10.88;;;;;;;17.83;100.00;100841.72;5065819;28;20051;-79
2023/09/29 05:30:44;;;;;;;13.48;10.60;;;;;;;17.57;100.00;100806.16;5063005;28;20106;-81
2023/09/29 05:33:13;;;;;;;16.90;11.18;;;;;;;17.71;100.00;100827.41;5072464;28;20044;-82
2023/09/29 05:35:49;;;;;;;13.57;10.45;;;;;;;17.82;100.00;100834.78;5070380;28;20048;-79
2023/09/29 05:38:18;;;;;;;15.88;10.00;;;;;;;17.73;100.00;100812.97;5079043;28;20090;-80
2023/09/29 05:40:48;;;;;;;16.17;9.82;;;;;;;17.71;100.00;100803.59;5063180;28;20052;-80
2023/09/29 05:43:17;;;;;;;14.25;10.15;;;;;;;17.76;100.00;100815.22;5057188;28;20051;-80
2023/09/29 05:45:43;;;;;;;12.90;9.98;;;;;;;17.79;100.00;100830.72;5051061;28;20088;-79
2023/09/29 05:48:10;;;;;;;12.48;10.30;;;;;;;17.83;100.00;100821.38;5058784;28;20040;-80
2023/09/29 05:50:37;;;;;;;13.68;9.63;;;;;;;17.82;100.00;100832.16;5062148;28;20053;-81
2023/09/29 05:53:04;;;;;;;14.10;9.93;;;;;;;17.85;100.00;100829.09;5065723;28;20495;-82
2023/09/29 05:55:32;;;;;;;14.52;10.23;;;;;;;17.88;100.00;100828.72;5071475;28;20060;-80
2023/09/29 05:57:59;;;;;;;16.45;10.18;;;;;;;17.92;100.00;100832.59;5053383;28;20072;-80
2023/09/29 06:00:27;;;;;;;18.27;9.85;;;;;;;18.06;100.00;100838.72;5071190;28;20384;-79
2023/09/29 06:02:56;;;;;;;13.50;9.55;;;;;;;18.14;100.00;100833.25;5060642;28;20033;-80
2023/09/29 06:05:23;;;;;;;12.27;9.77;;;;;;;18.11;100.00;100823.06;5074303;28;20103;-83
2023/09/29 06:07:52;;;;;;;12.10;9.95;;;;;;;18.19;100.00;100826.34;5060969;28;20055;-82
2023/09/29 06:10:20;;;;;;;11.90;9.38;;;;;;;18.18;100.00;100813.28;5078798;28;20478;-84
2023/09/29 06:12:54;;;;;;;12.40;9.57;;;;;;;18.08;100.00;100803.09;5063371;28;20045;-79
2023/09/29 06:15:24;;;;;;;12.13;9.65;;;;;;;18.20;100.00;100808.63;5055749;28;20056;-78
2023/09/29 06:17:54;;;;;;;13.68;9.20;;;;;;;18.34;100.00;100822.69;5054234;28;20135;-78
2023/09/29 06:23:46;;;;;;;12.07;8.95;;;;;;;18.38;100.00;100803.56;5006587;28;20058;-81
2023/09/29 06:26:33;;;;;;;11.38;8.98;;;;;;;18.45;100.00;100793.75;4950463;28;20051;-82
2023/09/29 06:41:06;;;;;;;12.90;8.70;;;;;;;18.98;100.00;100793.72;4955998;29;20078;-80
2023/09/29 06:46:36;;;;;;;10.63;8.35;;;;;;;18.90;100.00;100804.59;5004911;28;20571;-80
2023/09/29 06:49:07;;;;;;;13.30;8.50;;;;;;;18.75;100.00;100785.44;4994847;28;20062;-80
2023/09/29 06:51:36;;;;;;;12.75;8.35;;;;;;;18.77;100.00;100784.19;5041666;28;20045;-80
2023/09/29 06:54:03;;;;;;;13.80;8.20;;;;;;;18.88;100.00;100777.47;5053710;28;20059;-80
2023/09/29 06:56:30;;;;;;;14.02;8.60;;;;;;;19.03;100.00;100804.53;5055228;28;20110;-79
2023/09/29 06:58:59;;;;;;;11.45;7.63;;;;;;;19.03;100.00;100780.66;5047598;28;20118;-79
2023/09/29 07:01:27;;;;;;;10.35;7.68;;;;;;;19.08;100.00;100772.09;5031410;28;20053;-78
2023/09/29 07:04:02;;;;;;;12.05;7.32;;;;;;;19.31;100.00;100796.31;5052565;28;20044;-78
2023/09/29 07:06:37;;;;;;;10.32;7.57;;;;;;;19.27;100.00;100776.53;5061478;28;20053;-78
2023/09/29 07:09:20;;;;;;;15.82;7.35;;;;;;;19.52;100.00;100790.75;5072589;28;20151;-79
2023/09/29 07:11:50;;;;;;;9.38;6.97;;;;;;;19.61;100.00;100778.06;5060993;28;20049;-80
2023/09/29 07:14:20;;;;;;;11.10;7.28;;;;;;;19.92;100.00;100785.22;5059055;28;20086;-79
2023/09/29 07:16:49;;;;;;;10.55;6.22;;;;;;;20.54;100.00;100760.47;5055870;28;20048;-80
2023/09/29 07:19:17;;;;;;;9.77;6.90;;;;;;;20.85;99.43;100759.56;5054879;28;20041;-80
2023/09/29 07:21:48;;;;;;;11.10;6.70;;;;;;;20.55;99.04;100758.63;5056869;28;20063;-79
2023/09/29 07:24:49;;;;;;;8.48;6.53;;;;;;;20.48;99.14;100761.34;5052961;28;20056;-79
2023/09/29 07:30:53;;;;;;;11.75;6.93;;;;;;;20.47;100.00;100782.81;4985154;28;20058;-80
2023/09/29 07:33:27;;;;;;;13.27;6.72;;;;;;;20.25;100.00;100800.16;5008488;28;20058;-79
2023/09/29 07:35:56;;;;;;;14.27;6.80;;;;;;;20.21;100.00;100789.97;5027612;28;20495;-80
2023/09/29 07:38:25;;;;;;;12.43;6.55;;;;;;;20.04;100.00;100775.56;5049024;28;20046;-79
2023/09/29 07:40:52;;;;;;;11.55;6.70;;;;;;;20.01;100.00;100772.50;5053835;28;20057;-79
2023/09/29 07:43:18;;;;;;;11.20;7.38;;;;;;;20.04;100.00;100791.50;5052294;28;20051;-79
2023/09/29 07:45:51;;;;;;;12.60;7.80;;;;;;;20.28;100.00;100786.44;5051602;28;20071;-79
2023/09/29 07:48:17;;;;;;;;;;;;;;;20.26;100.00;100775.22;5055928;28;20052;-79
2023/09/29 07:50:44;;;;;;;13.30;6.88;;;;;;;20.16;100.00;100760.56;5053490;28;19921;-79
2023/09/29 07:53:14;;;;;;;9.65;6.70;;;;;;;20.42;100.00;100774.69;5048664;28;20136;-78
2023/09/29 07:55:43;;;;;;;12.20;7.57;;;;;;;20.58;100.00;100766.19;5057263;28;20064;-78
2023/09/29 07:58:12;;;;;;;9.25;6.70;;;;;;;20.79;99.10;100768.44;5052773;28;20537;-79
2023/09/29 08:00:38;;;;;;;10.02;6.93;;;;;;;20.67;98.64;100751.56;5048987;28;20149;-79
2023/09/29 08:03:05;;;;;;;14.80;7.20;;;;;;;20.84;98.15;100770.41;5050858;28;20048;-79
2023/09/29 08:05:32;;;;;;;10.50;7.18;;;;;;;20.95;98.18;100768.88;5045652;28;20053;-80
2023/09/29 08:07:58;;;;;;;10.00;7.00;;;;;;;21.07;97.85;100777.75;5052087;28;20053;-79
2023/09/29 08:10:25;;;;;;;8.55;6.53;;;;;;;21.27;96.75;100773.03;5053567;28;20079;-79
2023/09/29 08:12:54;;;;;;;9.73;6.72;;;;;;;21.42;95.86;100768.16;5050582;28;20404;-80
2023/09/29 08:15:21;;;;;;;14.63;6.93;;;;;;;21.31;96.07;100774.22;5052337;28;20133;-80
2023/09/29 08:17:49;;;;;;;9.88;6.35;;;;;;;21.27;96.36;100772.25;5052122;28;20178;-79
2023/09/29 08:20:17;;;;;;;12.52;6.57;;;;;;;21.33;96.28;100772.16;5052887;28;20083;-80
2023/09/29 08:22:44;;;;;;;34.17;9.45;;;;;;;21.37;96.48;100788.50;5051276;28;20629;-79
2023/09/29 08:25:11;;;;;;;15.35;6.95;;;;;;;21.44;95.84;100782.06;5051954;28;20051;-79
2023/09/29 08:27:38;;;;;;;9.75;6.18;;;;;;;21.41;96.06;100777.19;5047812;28;20053;-80
2023/09/29 08:30:07;;;;;;;11.52;6.97;;;;;;;21.37;95.84;100770.66;5051867;28;20136;-80
2023/09/29 08:32:36;;;;;;;11.27;6.07;;;;;;;21.70;95.34;100775.59;5051909;28;20045;-79
2023/09/29 08:35:05;;;;;;;9.80;6.10;;;;;;;21.89;93.72;100770.19;5051931;28;20080;-79
2023/09/29 08:37:31;;;;;;;10.00;6.35;;;;;;;21.76;93.06;100765.88;5054180;28;20136;-79
2023/09/29 08:39:58;;;;;;;11.05;6.32;;;;;;;21.86;93.37;100766.13;5053771;28;20551;-79
2023/09/29 08:42:34;;;;;;;11.27;6.22;;;;;;;22.06;92.65;100766.69;5051444;28;20335;-81
2023/09/29 08:45:03;;;;;;;10.35;6.00;;;;;;;22.65;91.48;100764.09;5053345;28;20573;-80
2023/09/29 08:47:36;;;;;;;9.93;5.82;;;;;;;23.20;88.37;100745.81;5058300;28;20053;-81
2023/09/29 08:50:05;;;;;;;12.68;5.90;;;;;;;23.93;85.97;100742.41;5052874;28;20136;-80
2023/09/29 08:52:32;;;;;;;7.75;5.50;;;;;;;23.70;84.77;100735.31;5053493;28;20410;-80
2023/09/29 08:54:59;;;;;;;13.45;6.10;;;;;;;23.41;85.45;100734.50;5059145;28;20487;-80
2023/09/29 08:57:26;;;;;;;13.43;6.00;;;;;;;24.19;84.44;100748.16;5059631;28;20491;-81
2023/09/29 08:59:55;;;;;;;9.07;5.70;;;;;;;24.28;82.26;100736.06;5053423;28;20576;-79
2023/09/29 09:02:24;;;;;;;11.30;5.75;;;;;;;24.47;80.46;100745.44;5050967;28;20057;-80
2023/09/29 09:04:52;;;;;;;8.98;5.70;;;;;;;24.67;80.48;100766.31;5061680;28;20136;-80
2023/09/29 09:07:19;;;;;;;8.30;5.50;;;;;;;24.93;79.81;100770.19;5056401;28;20131;-80
2023/09/29 09:09:48;;;;;;;8.40;5.18;;;;;;;25.02;78.85;100763.38;5056064;28;20048;-81
2023/09/29 09:12:15;;;;;;;10.55;5.72;;;;;;;25.22;77.89;100752.91;5052942;28;20048;-81
2023/09/29 09:14:44;;;;;;;9.18;6.22;;;;;;;25.26;77.23;100759.38;5054518;28;20112;-80
2023/09/29 09:17:11;;;;;;;15.10;6.10;;;;;;;25.35;77.29;100767.78;5053259;28;20055;-81
2023/09/29 09:19:43;;;;;;;10.07;5.75;;;;;;;25.54;76.29;100760.22;5055071;28;20199;-81
2023/09/29 09:22:16;;;;;;;9.05;4.85;;;;;;;25.22;75.40;100758.25;5054882;28;20045;-80
2023/09/29 09:24:42;;;;;;;8.85;5.28;;;;;;;25.26;76.15;100762.06;5054718;28;20495;-80
2023/09/29 09:27:09;;;;;;;9.93;5.47;;;;;;;25.16;76.31;100769.97;5049317;28;20140;-78
2023/09/29 09:29:41;;;;;;;10.00;4.93;;;;;;;24.49;76.36;100780.78;5047166;28;20144;-78
2023/09/29 09:32:10;;;;;;;7.78;5.07;;;;;;;24.34;77.46;100793.91;5047413;28;20067;-79
2023/09/29 09:37:51;;;;;;;21.38;4.95;;;;;;;23.95;78.99;100807.13;5049732;28;20429;-80
2023/09/29 09:40:23;;;;;;;10.88;5.00;;;;;;;23.98;79.12;100803.97;5055920;28;20477;-78
2023/09/29 09:42:54;;;;;;;10.32;5.45;;;;;;;23.91;78.47;100806.00;5048816;28;20071;-80
2023/09/29 09:45:24;;;;;;;11.48;5.15;;;;;;;23.74;78.37;100794.44;5056734;28;20404;-81
2023/09/29 09:48:18;;;;;;;8.43;4.93;;;;;;;24.13;77.68;100796.22;5058021;28;20053;-79
2023/09/29 09:50:46;;;;;;;11.63;4.60;;;;;;;23.99;77.54;100775.41;5055234;28;20088;-80
2023/09/29 09:53:28;;;;;;;10.90;4.45;;;;;;;24.28;76.84;100810.94;5054706;28;20064;-80
2023/09/29 09:56:01;;;;;;;20.20;4.63;;;;;;;23.99;76.54;100781.56;5053064;28;20104;-80
2023/09/29 10:39:30;;;;;;;13.88;7.20;;;;;;;23.81;72.97;100789.75;4781929;29;20064;-82
2023/09/29 11:53:58;;;;;;;15.00;7.22;;;;;;;24.30;69.58;100852.41;5000914;28;20099;-81
2023/09/29 11:59:48;;;;;;;;;;;;;;;;;;;;;
2023/09/29 12:02:22;;;;;;;13.40;7.63;;;;;;;24.30;69.63;100833.69;5026538;28;20133;-79
2023/09/29 12:05:04;;;;;;;15.52;7.35;;;;;;;24.32;70.52;100857.53;5037090;28;20053;-80
2023/09/29 12:08:02;;;;;;;15.15;6.72;;;;;;;24.37;70.54;100839.72;5029879;28;20538;-80
2023/09/29 12:11:00;;;;;;;;;;;;;;;;;;;;;
2023/09/29 12:13:42;;;;;;;15.77;6.95;;;;;;;24.73;70.02;100846.44;5038019;28;20135;-79
2023/09/29 12:16:18;;;;;;;16.50;6.50;;;;;;;24.56;70.20;100842.97;5028951;28;20105;-80
2023/09/29 12:25:00;;;;;;;12.60;6.07;;;;;;;24.89;69.43;100844.00;5032586;28;20069;-79
2023/09/29 12:28:14;;;;;;;15.70;7.22;;;;;;;24.78;69.64;100849.19;5031772;28;20099;-80
2023/09/29 12:55:03;;;;;;;12.75;6.68;;;;;;;23.92;74.53;100890.47;5019516;28;20119;-81
2023/09/29 13:58:10;;;;;;;7.25;4.00;;;;;;;22.61;87.12;100962.97;4800830;29;20076;-81
2023/09/29 14:08:15;;;;;;;7.07;4.18;;;;;;;22.06;89.23;100990.53;4856609;29;20045;-80
2023/09/29 14:11:03;;;;;;;7.22;4.10;;;;;;;21.91;90.44;101000.72;4966041;28;20133;-81
2023/09/29 14:14:16;;;;;;;;;;;;;;;;;;;;;
2023/09/29 14:17:30;;;;;;;7.90;4.00;;;;;;;21.93;90.82;100995.16;5023140;28;20116;-82
2023/09/29 14:20:35;;;;;;;6.43;3.70;;;;;;;21.79;91.34;100994.50;5066209;28;20045;-81
2023/09/29 14:33:48;;;;;;;6.90;3.75;;;;;;;22.29;89.97;100995.16;4971638;28;20050;-82
2023/09/29 14:49:21;;;;;;;;;;;;;;;;;;;;;
2023/09/29 14:52:06;;;;;;;7.82;3.90;;;;;;;22.67;86.56;100992.22;4983609;28;20132;-81
2023/09/29 14:57:41;;;;;;;9.10;3.80;;;;;;;22.39;88.46;100999.97;4988861;28;20054;-81
2023/09/29 15:00:23;;;;;;;5.90;3.60;;;;;;;22.16;89.83;101003.34;5054448;28;20132;-82
2023/09/29 16:10:45;;;;;;;12.20;5.47;;;;;;;18.91;100.00;101230.44;4894956;28;19932;-81
2023/09/29 16:13:13;;;;;;;7.40;4.47;;;;;;;18.80;100.00;101217.78;5033388;28;20543;-82
2023/09/29 16:15:45;;;;;;;10.02;4.90;;;;;;;18.71;100.00;101226.88;5063631;28;20048;-81
2023/09/29 16:18:12;;;;;;;7.75;4.20;;;;;;;18.74;100.00;101229.97;5061084;28;20048;-80
2023/09/29 16:20:46;;;;;;;8.73;4.25;;;;;;;18.69;100.00;101234.22;5060686;28;20079;-82
2023/09/29 16:23:14;;;;;;;9.48;4.72;;;;;;;18.64;100.00;101250.69;5051248;28;20127;-81
2023/09/29 16:26:00;;;;;;;9.23;3.90;;;;;;;18.60;100.00;101227.38;5061346;28;20049;-82
2023/09/29 16:32:13;;;;;;;10.55;4.22;;;;;;;18.67;100.00;101255.63;4980362;28;20595;-81
2023/09/29 16:37:53;;;;;;;11.93;4.30;;;;;;;18.65;100.00;101255.00;4986027;28;20073;-80
2023/09/29 16:40:25;;;;;;;6.03;3.40;;;;;;;18.52;100.00;101253.03;4998675;28;20423;-81
2023/09/29 16:42:52;;;;;;;6.63;3.70;;;;;;;18.38;100.00;101253.13;5051891;28;20410;-80
2023/09/29 16:45:30;;;;;;;7.40;3.72;;;;;;;18.48;100.00;101272.16;5069860;28;20056;-80
2023/09/29 16:48:06;;;;;;;8.15;3.83;;;;;;;18.44;100.00;101273.53;5061390;28;20053;-81
2023/09/29 16:50:36;;;;;;;7.80;3.70;;;;;;;18.56;100.00;101290.56;5042724;28;20076;-79
2023/09/29 18:13:38;;;;;;;9.30;4.05;;;;;;;18.04;100.00;101471.81;4982431;28;20457;-80
2023/09/29 18:16:33;;;;;;;11.32;4.43;;;;;;;18.00;100.00;101486.44;4978064;28;20050;-81
2023/09/29 18:49:50;;;;;;;13.73;5.15;;;;;;;18.08;96.82;101549.91;4980226;28;20042;-81
2023/09/29 18:53:16;;;;;;;15.85;5.72;;;;;;;17.95;96.92;101536.50;4990682;28;20476;-81
2023/09/29 19:46:32;;;;;;;11.88;5.30;;;;;;;16.83;99.77;101601.53;5029976;28;20124;-79
2023/09/29 19:49:44;;;;;;;14.40;5.10;;;;;;;16.69;100.00;101599.59;5051071;28;20047;-79
2023/09/29 19:52:41;;;;;;;12.43;4.93;;;;;;;16.76;100.00;101623.53;5049779;28;20052;-79
2023/09/29 20:17:19;;;;;;;9.02;5.05;;;;;;;16.18;100.00;101632.59;4886252;29;20047;-81
2023/09/29 20:19:58;;;;;;;10.98;5.10;;;;;;;16.11;100.00;101631.63;4979632;28;20046;-80
2023/09/29 20:22:28;;;;;;;13.57;5.70;;;;;;;16.06;100.00;101636.63;5008049;28;20048;-81
2023/09/29 20:25:04;;;;;;;11.85;5.65;;;;;;;16.00;100.00;101639.91;5017270;28;20058;-81
2023/09/29 20:27:33;;;;;;;10.93;5.43;;;;;;;16.08;100.00;101648.63;5020954;28;20065;-81
2023/09/29 20:30:00;;;;;;;13.57;5.90;;;;;;;16.01;100.00;101663.50;5004568;28;20539;-81
2023/09/29 20:32:28;;;;;;;15.82;6.28;;;;;;;16.03;100.00;101672.09;5002549;28;20090;-82
2023/09/29 20:35:19;;;;;;;15.45;5.47;;;;;;;15.87;100.00;101656.25;5009754;28;20100;-81
2023/09/29 20:37:51;;;;;;;12.98;6.15;;;;;;;15.84;100.00;101646.03;5008139;28;20057;-82
2023/09/29 20:40:33;;;;;;;12.45;5.80;;;;;;;15.69;100.00;101681.97;5018745;28;20267;-81
2023/09/29 20:43:10;;;;;;;15.83;5.77;;;;;;;15.76;100.00;101693.53;5001079;28;20229;-81
2023/09/29 20:45:40;;;;;;;12.60;5.82;;;;;;;15.67;100.00;101686.59;5004966;28;20578;-80
2023/09/29 20:48:14;;;;;;;19.58;5.95;;;;;;;15.52;100.00;101689.84;5012998;28;20124;-80
2023/09/29 20:50:43;;;;;;;10.68;5.30;;;;;;;15.42;100.00;101705.00;5016810;28;20106;-80
2023/09/29 20:53:11;;;;;;;11.85;5.95;;;;;;;15.44;100.00;101713.56;5017815;28;20085;-81
2023/09/29 20:55:38;;;;;;;13.55;6.07;;;;;;;15.34;100.00;101718.16;5014512;28;20420;-80
2023/09/29 20:58:04;;;;;;;15.77;5.68;;;;;;;15.41;100.00;101705.97;4999790;28;20097;-79
2023/09/29 21:00:32;;;;;;;14.48;5.90;;;;;;;15.31;100.00;101701.81;5011297;28;20050;-79
2023/09/29 21:03:08;;;;;;;14.60;6.00;;;;;;;15.32;100.00;101709.56;5011210;28;20050;-79
2023/09/29 21:05:36;;;;;;;13.23;6.40;;;;;;;15.23;100.00;101713.16;5012529;28;20052;-79
2023/09/29 21:08:03;;;;;;;16.00;6.30;;;;;;;15.19;100.00;101722.38;5017809;28;20046;-79
2023/09/29 21:10:30;;;;;;;11.75;5.75;;;;;;;15.18;100.00;101718.09;4998617;28;20093;-80
2023/09/29 21:12:57;;;;;;;19.02;6.18;;;;;;;15.18;100.00;101729.47;5014903;28;20129;-80
2023/09/29 21:15:25;;;;;;;14.55;5.70;;;;;;;15.09;100.00;101724.34;5015330;28;20291;-80
2023/09/29 21:17:51;;;;;;;17.00;5.53;;;;;;;15.04;100.00;101726.63;5010166;28;20054;-80
2023/09/29 21:20:18;;;;;;;18.75;6.80;;;;;;;15.08;100.00;101727.97;5020530;28;20077;-81
2023/09/29 21:22:46;;;;;;;11.60;5.82;;;;;;;15.06;100.00;101732.56;5020431;28;20132;-82
2023/09/29 21:25:13;;;;;;;14.02;6.13;;;;;;;15.07;100.00;101736.84;5011059;28;20129;-79
2023/09/29 21:27:39;;;;;;;14.63;6.70;;;;;;;15.04;100.00;101737.16;5015793;28;20042;-80
2023/09/29 21:30:08;;;;;;;12.07;5.70;;;;;;;14.86;100.00;101730.16;5012330;28;20341;-80